createdAt,value
2022-12-04T00:01:25.590Z,3.80
2022-12-04T00:03:59.068Z,3.80
2022-12-04T00:06:26.756Z,3.80
2022-12-04T00:08:54.731Z,3.80
2022-12-04T00:11:26.651Z,3.80
2022-12-04T00:13:54.254Z,3.80
2022-12-04T00:16:26.103Z,3.80
2022-12-04T00:18:54.538Z,3.80
2022-12-04T00:21:23.373Z,3.80
2022-12-04T00:23:50.949Z,3.80
2022-12-04T00:26:31.121Z,5.20
2022-12-04T00:28:58.731Z,3.80
2022-12-04T00:31:28.682Z,3.80
2022-12-04T00:33:55.872Z,3.80
2022-12-04T00:36:26.430Z,3.80
2022-12-04T00:38:54.350Z,3.80
2022-12-04T00:41:25.278Z,3.80
2022-12-04T00:43:52.551Z,3.70
2022-12-04T00:46:19.625Z,3.70
2022-12-04T00:48:46.994Z,3.80
2022-12-04T00:51:18.712Z,3.80
2022-12-04T00:53:46.779Z,3.80
2022-12-04T00:56:23.197Z,3.70
2022-12-04T00:58:56.127Z,3.80
2022-12-04T01:01:24.422Z,3.80
2022-12-04T01:03:52.524Z,3.80
2022-12-04T01:06:30.085Z,3.70
2022-12-04T01:08:59.021Z,3.80
2022-12-04T01:11:28.414Z,3.70
2022-12-04T01:13:56.092Z,3.80
2022-12-04T01:16:29.405Z,3.80
2022-12-04T01:18:56.798Z,3.70
2022-12-04T01:21:24.037Z,3.70
2022-12-04T01:23:51.237Z,3.70
2022-12-04T01:26:18.084Z,3.70
2022-12-04T01:28:44.958Z,3.70
2022-12-04T01:31:18.327Z,3.70
2022-12-04T01:33:47.266Z,3.70
2022-12-04T01:36:19.738Z,3.70
2022-12-04T01:38:46.945Z,3.70
2022-12-04T01:41:17.901Z,3.70
2022-12-04T01:43:44.937Z,3.70
2022-12-04T01:46:12.484Z,3.70
2022-12-04T01:48:54.304Z,3.70
2022-12-04T01:51:35.831Z,3.80
2022-12-04T01:54:09.064Z,3.70
2022-12-04T01:56:50.478Z,3.70
2022-12-04T01:59:23.677Z,3.80
2022-12-04T02:02:02.766Z,3.70
2022-12-04T02:04:33.292Z,3.70
2022-12-04T02:07:00.220Z,3.70
2022-12-04T02:09:27.969Z,3.70
2022-12-04T02:12:39.106Z,3.70
2022-12-04T02:15:16.067Z,3.70
2022-12-04T02:18:01.762Z,3.70
2022-12-04T02:21:02.280Z,3.70
2022-12-04T02:24:33.143Z,3.70
2022-12-04T02:27:07.901Z,3.80
2022-12-04T02:29:57.151Z,3.60
2022-12-04T02:32:44.711Z,3.70
2022-12-04T02:35:27.709Z,3.70
2022-12-04T02:38:25.679Z,3.70
2022-12-04T02:41:17.137Z,3.70
2022-12-04T02:43:57.842Z,3.70
2022-12-04T02:46:29.915Z,4.00
2022-12-04T02:49:02.416Z,3.70
2022-12-04T02:51:34.917Z,3.70
2022-12-04T02:54:30.171Z,3.70
2022-12-04T02:56:59.621Z,3.70
2022-12-04T02:59:36.685Z,3.70
2022-12-04T03:02:14.671Z,3.70
2022-12-04T03:04:42.507Z,3.70
2022-12-04T03:07:20.587Z,3.70
2022-12-04T03:09:56.600Z,3.70
2022-12-04T03:12:36.566Z,3.70
2022-12-04T03:15:19.223Z,3.70
2022-12-04T03:18:16.904Z,3.80
2022-12-04T03:20:50.317Z,3.80
2022-12-04T03:23:28.610Z,3.70
2022-12-04T03:26:23.004Z,3.80
2022-12-04T03:29:08.206Z,3.80
2022-12-04T03:31:50.561Z,3.70
2022-12-04T03:34:35.852Z,3.70
2022-12-04T03:37:16.322Z,3.70
2022-12-04T03:40:07.670Z,3.70
2022-12-04T03:43:19.637Z,3.70
2022-12-04T03:46:03.470Z,3.70
2022-12-04T03:48:44.390Z,3.70
2022-12-04T03:51:38.404Z,3.70
2022-12-04T03:54:17.182Z,3.70
2022-12-04T03:57:02.111Z,3.70
2022-12-04T03:59:38.047Z,3.70
2022-12-04T04:02:13.424Z,3.70
2022-12-04T04:04:43.948Z,3.70
2022-12-04T04:07:33.340Z,3.70
2022-12-04T04:10:11.201Z,3.70
2022-12-04T04:12:46.449Z,3.70
2022-12-04T04:15:36.346Z,3.70
2022-12-04T04:18:21.943Z,3.70
2022-12-04T04:21:16.778Z,3.70
2022-12-04T04:24:08.618Z,3.70
2022-12-04T04:26:44.184Z,3.80
2022-12-04T04:29:11.708Z,3.70
2022-12-04T04:32:23.394Z,3.70
2022-12-04T04:35:13.002Z,3.70
2022-12-04T04:38:14.856Z,3.70
2022-12-04T04:41:19.912Z,3.70
2022-12-04T04:44:11.051Z,3.70
2022-12-04T04:46:48.875Z,3.70
2022-12-04T04:49:17.767Z,3.70
2022-12-04T04:51:46.106Z,3.70
2022-12-04T04:54:16.575Z,3.70
2022-12-04T04:56:45.978Z,3.80
2022-12-04T04:59:13.444Z,3.70
2022-12-04T05:01:44.872Z,3.80
2022-12-04T05:04:12.336Z,3.80
2022-12-04T05:06:39.138Z,3.70
2022-12-04T05:09:06.169Z,3.80
2022-12-04T05:11:33.547Z,3.80
2022-12-04T05:14:00.395Z,3.70
2022-12-04T05:16:27.256Z,3.80
2022-12-04T05:19:12.547Z,3.80
2022-12-04T05:21:41.496Z,3.80
2022-12-04T05:24:09.202Z,3.80
2022-12-04T05:26:36.417Z,3.80
2022-12-04T05:29:03.496Z,3.80
2022-12-04T05:31:30.424Z,3.70
2022-12-04T05:33:57.724Z,3.80
2022-12-04T05:36:25.349Z,3.80
2022-12-04T05:38:52.114Z,3.70
2022-12-04T05:41:18.957Z,3.80
2022-12-04T05:43:45.777Z,3.80
2022-12-04T05:46:12.672Z,3.80
2022-12-04T05:48:39.479Z,3.80
2022-12-04T05:51:09.198Z,3.80
2022-12-04T05:53:37.047Z,3.80
2022-12-04T05:56:07.279Z,3.80
2022-12-04T05:58:39.081Z,3.80
2022-12-04T06:01:15.347Z,3.80
2022-12-04T06:03:43.620Z,3.80
2022-12-04T06:06:21.509Z,3.80
2022-12-04T06:08:51.740Z,3.80
2022-12-04T06:11:26.073Z,3.80
2022-12-04T06:13:53.565Z,3.80
2022-12-04T06:16:30.298Z,3.80
2022-12-04T06:19:01.086Z,3.80
2022-12-04T06:21:31.259Z,3.80
2022-12-04T06:23:58.716Z,3.80
2022-12-04T06:26:25.977Z,3.80
2022-12-04T06:28:55.230Z,3.80
2022-12-04T06:31:22.919Z,3.80
2022-12-04T06:33:50.363Z,3.80
2022-12-04T06:36:20.979Z,3.80
2022-12-04T06:38:50.033Z,3.80
2022-12-04T06:41:20.574Z,3.80
2022-12-04T06:43:48.777Z,3.80
2022-12-04T06:46:25.573Z,3.80
2022-12-04T06:48:55.226Z,3.90
2022-12-04T06:51:27.874Z,3.80
2022-12-04T06:53:55.557Z,3.90
2022-12-04T06:56:26.854Z,3.80
2022-12-04T06:58:56.892Z,3.90
2022-12-04T07:01:28.341Z,3.90
2022-12-04T07:03:57.235Z,3.90
2022-12-04T07:06:26.500Z,3.70
2022-12-04T07:08:59.564Z,3.90
2022-12-04T07:11:26.568Z,3.90
2022-12-04T07:13:54.578Z,3.90
2022-12-04T07:16:25.307Z,3.90
2022-12-04T07:18:56.484Z,3.90
2022-12-04T07:21:29.773Z,4.00
2022-12-04T07:23:59.665Z,3.90
2022-12-04T07:26:28.326Z,4.00
2022-12-04T07:28:56.453Z,3.90
2022-12-04T07:31:26.309Z,3.90
2022-12-04T07:33:54.447Z,4.00
2022-12-04T07:36:24.078Z,4.00
2022-12-04T07:38:51.832Z,3.90
2022-12-04T07:41:19.756Z,3.90
2022-12-04T07:43:47.323Z,4.00
2022-12-04T07:46:21.427Z,4.00
2022-12-04T07:48:48.358Z,4.00
2022-12-04T07:51:21.947Z,4.00
2022-12-04T07:53:51.025Z,4.00
2022-12-04T07:56:19.285Z,4.00
2022-12-04T07:58:47.025Z,4.00
2022-12-04T08:01:21.715Z,4.00
2022-12-04T08:03:51.888Z,4.00
2022-12-04T08:06:21.686Z,4.10
2022-12-04T08:08:49.530Z,4.10
2022-12-04T08:11:23.184Z,4.00
2022-12-04T08:14:01.346Z,4.00
2022-12-04T08:16:31.216Z,4.10
2022-12-04T08:18:58.941Z,4.10
2022-12-04T08:21:29.398Z,4.10
2022-12-04T08:23:58.335Z,4.10
2022-12-04T08:26:29.442Z,4.10
2022-12-04T08:28:57.613Z,4.10
2022-12-04T08:31:28.072Z,4.20
2022-12-04T08:33:58.094Z,4.20
2022-12-04T08:36:26.009Z,4.20
2022-12-04T08:38:53.174Z,4.20
2022-12-04T08:41:24.176Z,4.30
2022-12-04T08:43:56.088Z,4.30
2022-12-04T08:46:25.269Z,4.30
2022-12-04T08:48:52.297Z,4.30
2022-12-04T08:51:26.707Z,4.40
2022-12-04T08:53:56.387Z,4.40
2022-12-04T08:56:25.367Z,4.40
2022-12-04T08:58:52.513Z,4.40
2022-12-04T09:01:19.571Z,4.50
2022-12-04T09:03:46.590Z,4.50
2022-12-04T09:06:15.772Z,4.50
2022-12-04T09:08:43.197Z,4.50
2022-12-04T09:11:19.632Z,4.60
2022-12-04T09:13:47.133Z,4.60
2022-12-04T09:16:19.225Z,4.60
2022-12-04T09:18:47.086Z,4.60
2022-12-04T09:21:17.610Z,4.70
2022-12-04T09:23:44.887Z,4.70
2022-12-04T09:26:38.022Z,4.70
2022-12-04T09:29:06.156Z,4.80
2022-12-04T09:31:34.237Z,4.70
2022-12-04T09:34:02.652Z,4.80
2022-12-04T09:36:30.059Z,4.80
2022-12-04T09:38:58.522Z,4.80
2022-12-04T09:41:37.771Z,4.80
2022-12-04T09:44:14.683Z,4.90
2022-12-04T09:46:57.960Z,4.90
2022-12-04T09:49:41.318Z,4.90
2022-12-04T09:52:30.570Z,4.90
2022-12-04T09:55:03.382Z,4.90
2022-12-04T09:57:43.763Z,4.90
2022-12-04T10:00:16.614Z,4.90
2022-12-04T10:02:52.782Z,4.90
2022-12-04T10:05:47.738Z,6.00
2022-12-04T10:08:35.162Z,4.90
2022-12-04T10:11:32.980Z,4.90
2022-12-04T10:14:43.753Z,4.90
2022-12-04T10:17:39.341Z,4.90
2022-12-04T10:20:41.489Z,4.90
2022-12-04T10:23:50.431Z,4.80
2022-12-04T10:26:25.004Z,4.90
2022-12-04T10:29:02.895Z,4.80
2022-12-04T10:31:33.983Z,4.80
2022-12-04T10:34:16.369Z,4.80
2022-12-04T10:36:51.156Z,4.80
2022-12-04T10:39:37.910Z,4.80
2022-12-04T10:42:21.717Z,4.70
2022-12-04T10:44:48.620Z,4.70
2022-12-04T10:47:15.646Z,4.70
2022-12-04T10:49:42.631Z,4.70
2022-12-04T10:52:13.026Z,4.70
2022-12-04T10:54:48.380Z,4.70
2022-12-04T10:57:16.372Z,4.70
2022-12-04T10:59:56.270Z,4.80
2022-12-04T11:02:31.951Z,4.80
2022-12-04T11:05:07.216Z,4.70
2022-12-04T11:07:54.622Z,4.70
2022-12-04T11:10:42.955Z,4.70
2022-12-04T11:13:12.448Z,4.70
2022-12-04T11:15:49.514Z,4.70
2022-12-04T11:18:27.074Z,4.70
2022-12-04T11:21:15.800Z,4.80
2022-12-04T11:23:49.685Z,4.70
2022-12-04T11:26:35.120Z,4.70
2022-12-04T11:29:05.268Z,4.70
2022-12-04T11:31:33.623Z,4.70
2022-12-04T11:34:05.402Z,4.70
2022-12-04T11:36:36.777Z,4.70
2022-12-04T11:39:12.470Z,4.70
2022-12-04T11:41:40.176Z,4.70
2022-12-04T11:44:24.344Z,6.70
2022-12-04T11:47:00.162Z,4.70
2022-12-04T11:49:29.279Z,4.80
2022-12-04T11:52:35.137Z,4.70
2022-12-04T11:55:14.987Z,4.70
2022-12-04T11:58:18.422Z,4.70
2022-12-04T12:01:25.400Z,4.70
2022-12-04T12:04:13.539Z,4.70
2022-12-04T12:07:01.642Z,4.70
2022-12-04T12:09:55.717Z,4.70
2022-12-04T12:12:34.714Z,4.70
2022-12-04T12:15:34.219Z,4.70
2022-12-04T12:18:28.989Z,4.70
2022-12-04T12:21:27.735Z,4.70
2022-12-04T12:24:31.979Z,4.70
2022-12-04T12:27:20.299Z,4.70
2022-12-04T12:30:08.555Z,4.70
2022-12-04T12:33:14.793Z,4.70
2022-12-04T12:36:11.254Z,4.70
2022-12-04T12:38:50.356Z,4.70
2022-12-04T12:41:27.276Z,4.80
2022-12-04T12:44:14.258Z,4.70
2022-12-04T12:46:51.403Z,4.70
2022-12-04T12:49:31.888Z,4.80
2022-12-04T12:52:12.795Z,4.80
2022-12-04T12:54:45.986Z,4.80
2022-12-04T12:57:20.275Z,4.80
2022-12-04T13:00:00.878Z,4.80
2022-12-04T13:02:44.798Z,4.90
2022-12-04T13:05:17.672Z,4.90
2022-12-04T13:08:27.789Z,4.90
2022-12-04T13:11:19.056Z,4.90
2022-12-04T13:13:54.810Z,4.90
2022-12-04T13:16:35.998Z,4.90
2022-12-04T13:19:26.916Z,5.10
2022-12-04T13:22:37.939Z,5.50
2022-12-04T13:25:34.195Z,4.80
2022-12-04T13:28:27.306Z,4.80
2022-12-04T13:31:25.801Z,4.80
2022-12-04T13:34:34.378Z,4.80
2022-12-04T13:37:27.114Z,4.80
2022-12-04T13:40:09.010Z,4.80
2022-12-04T13:42:36.179Z,4.70
2022-12-04T13:45:11.698Z,4.80
2022-12-04T13:47:38.746Z,4.80
2022-12-04T13:50:12.630Z,4.80
2022-12-04T13:52:42.814Z,4.80
2022-12-04T13:55:31.625Z,5.00
2022-12-04T13:58:01.475Z,4.80
2022-12-04T14:00:35.297Z,4.70
2022-12-04T14:03:25.725Z,4.80
2022-12-04T14:05:53.206Z,4.80
2022-12-04T14:08:19.962Z,4.70
2022-12-04T14:11:14.356Z,4.80
2022-12-04T14:13:53.932Z,4.80
2022-12-04T14:16:38.581Z,4.80
2022-12-04T14:19:08.137Z,4.80
2022-12-04T14:21:44.361Z,4.80
2022-12-04T14:24:38.281Z,4.80
2022-12-04T14:27:44.157Z,4.80
2022-12-04T14:30:19.363Z,4.80
2022-12-04T14:32:50.643Z,6.50
2022-12-04T14:35:22.946Z,5.20
2022-12-04T14:37:58.793Z,4.80
2022-12-04T14:40:33.593Z,4.80
2022-12-04T14:43:00.839Z,4.80
2022-12-04T14:46:00.256Z,4.80
2022-12-04T14:49:05.167Z,4.80
2022-12-04T14:51:44.875Z,4.80
2022-12-04T14:54:28.638Z,4.80
2022-12-04T14:57:34.545Z,4.80
2022-12-04T15:00:02.316Z,4.80
2022-12-04T15:02:39.870Z,4.80
2022-12-04T15:05:29.325Z,4.80
2022-12-04T15:08:04.931Z,4.80
2022-12-04T15:10:53.730Z,4.80
2022-12-04T15:13:32.774Z,7.00
2022-12-04T15:16:29.046Z,4.80
2022-12-04T15:19:00.938Z,4.80
2022-12-04T15:21:39.645Z,4.80
2022-12-04T15:24:19.429Z,4.80
2022-12-04T15:26:49.156Z,4.80
2022-12-04T15:29:28.442Z,6.10
2022-12-04T15:32:03.018Z,4.80
2022-12-04T15:34:48.088Z,4.80
2022-12-04T15:37:29.521Z,4.80
2022-12-04T15:39:57.534Z,4.80
2022-12-04T15:42:26.448Z,4.80
2022-12-04T15:45:23.387Z,4.80
2022-12-04T15:47:53.858Z,4.80
2022-12-04T15:50:29.330Z,4.80
2022-12-04T15:53:17.539Z,4.80
2022-12-04T15:55:59.786Z,4.80
2022-12-04T15:58:34.007Z,4.90
2022-12-04T16:01:06.204Z,4.80
2022-12-04T16:03:42.570Z,4.80
2022-12-04T16:06:21.021Z,4.90
2022-12-04T16:09:00.767Z,4.80
2022-12-04T16:11:36.270Z,4.80
2022-12-04T16:14:16.676Z,4.90
2022-12-04T16:16:48.390Z,4.90
2022-12-04T16:19:29.503Z,4.90
2022-12-04T16:21:56.515Z,4.90
2022-12-04T16:24:24.153Z,4.90
2022-12-04T16:26:54.993Z,4.90
2022-12-04T16:29:23.683Z,4.90
2022-12-04T16:31:51.107Z,4.90
2022-12-04T16:34:18.937Z,4.90
2022-12-04T16:36:46.039Z,4.90
2022-12-04T16:39:12.992Z,4.90
2022-12-04T16:41:40.770Z,4.90
2022-12-04T16:44:15.387Z,4.90
2022-12-04T16:46:43.372Z,4.90
2022-12-04T16:49:13.763Z,4.90
2022-12-04T16:51:50.955Z,5.00
2022-12-04T16:54:18.063Z,5.00
2022-12-04T16:56:44.966Z,5.00
2022-12-04T16:59:12.533Z,6.30
2022-12-04T17:01:48.870Z,5.00
2022-12-04T17:04:17.690Z,5.00
2022-12-04T17:06:45.699Z,5.00
2022-12-04T17:09:14.094Z,5.00
2022-12-04T17:11:41.907Z,5.00
2022-12-04T17:14:09.325Z,5.00
2022-12-04T17:16:43.128Z,5.00
2022-12-04T17:19:11.693Z,5.00
2022-12-04T17:21:40.213Z,5.00
2022-12-04T17:24:07.654Z,5.00
2022-12-04T17:26:34.892Z,5.00
2022-12-04T17:29:01.851Z,5.00
2022-12-04T17:31:29.005Z,5.00
2022-12-04T17:33:57.301Z,5.00
2022-12-04T17:36:27.357Z,5.00
2022-12-04T17:39:01.407Z,5.00
2022-12-04T17:41:28.507Z,5.00
2022-12-04T17:43:55.297Z,5.30
2022-12-04T17:46:24.429Z,5.00
2022-12-04T17:48:52.016Z,5.00
2022-12-04T17:51:24.110Z,5.10
2022-12-04T17:53:52.379Z,5.10
2022-12-04T17:56:23.752Z,5.00
2022-12-04T17:58:51.629Z,5.10
2022-12-04T18:01:28.917Z,5.10
2022-12-04T18:03:59.067Z,5.10
2022-12-04T18:06:39.283Z,5.10
2022-12-04T18:09:08.939Z,5.10
2022-12-04T18:11:38.538Z,5.10
2022-12-04T18:14:12.235Z,5.10
2022-12-04T18:16:52.756Z,5.10
2022-12-04T18:19:27.059Z,5.10
2022-12-04T18:21:55.861Z,5.10
2022-12-04T18:24:24.958Z,5.10
2022-12-04T18:26:51.835Z,5.10
2022-12-04T18:29:23.119Z,5.10
2022-12-04T18:31:51.962Z,5.10
2022-12-04T18:34:20.122Z,5.10
2022-12-04T18:36:47.221Z,5.10
2022-12-04T18:39:18.907Z,5.10
2022-12-04T18:41:46.877Z,5.10
2022-12-04T18:44:14.795Z,3.30
2022-12-04T18:46:42.587Z,5.20
2022-12-04T18:49:10.939Z,5.60
2022-12-04T18:51:49.269Z,5.10
2022-12-04T18:54:23.777Z,5.20
2022-12-04T18:56:51.751Z,5.10
2022-12-04T18:59:24.349Z,5.10
2022-12-04T19:01:51.974Z,5.10
2022-12-04T19:04:22.012Z,5.10
2022-12-04T19:06:53.196Z,5.10
2022-12-04T19:10:02.066Z,5.10
2022-12-04T19:12:15.106Z,5.10
2022-12-04T19:14:42.019Z,5.10
2022-12-04T19:17:09.142Z,5.90
2022-12-04T19:19:36.131Z,5.10
2022-12-04T19:22:03.959Z,5.10
2022-12-04T19:24:31.026Z,5.10
2022-12-04T19:26:57.897Z,5.10
2022-12-04T19:29:24.684Z,5.10
2022-12-04T19:31:56.015Z,5.10
2022-12-04T19:34:25.941Z,5.10
2022-12-04T19:36:54.748Z,5.10
2022-12-04T19:39:21.578Z,5.10
2022-12-04T19:41:48.479Z,5.10
2022-12-04T19:44:47.240Z,5.00
2022-12-04T19:47:02.521Z,5.00
2022-12-04T19:49:29.593Z,5.00
2022-12-04T19:51:56.502Z,5.10
2022-12-04T19:54:24.442Z,5.00
2022-12-04T19:56:52.463Z,5.00
2022-12-04T19:59:20.729Z,5.10
2022-12-04T20:01:48.166Z,5.00
2022-12-04T20:04:15.524Z,5.00
2022-12-04T20:06:45.259Z,5.00
2022-12-04T20:09:19.345Z,5.00
2022-12-04T20:11:46.865Z,5.00
2022-12-04T20:14:14.047Z,5.00
2022-12-04T20:16:41.940Z,5.00
2022-12-04T20:19:14.222Z,5.00
2022-12-04T20:21:41.347Z,5.00
2022-12-04T20:24:11.797Z,5.00
2022-12-04T20:26:40.937Z,5.00
2022-12-04T20:29:15.348Z,5.00
2022-12-04T20:31:45.550Z,5.00
2022-12-04T20:34:16.802Z,5.00
2022-12-04T20:36:46.121Z,5.00
2022-12-04T20:39:15.152Z,5.10
2022-12-04T20:41:42.138Z,5.10
2022-12-04T20:44:17.040Z,5.10
2022-12-04T20:46:45.037Z,5.10
2022-12-04T20:49:21.224Z,5.10
2022-12-04T20:51:51.060Z,5.10
2022-12-04T20:54:21.519Z,5.10
2022-12-04T20:56:49.967Z,5.10
2022-12-04T20:59:19.200Z,5.10
2022-12-04T21:01:47.219Z,5.10
2022-12-04T21:04:14.264Z,5.10
2022-12-04T21:06:41.959Z,5.10
2022-12-04T21:09:17.370Z,5.10
2022-12-04T21:11:48.109Z,5.10
2022-12-04T21:14:44.023Z,5.10
2022-12-04T21:17:18.628Z,5.10
2022-12-04T21:19:48.959Z,5.10
2022-12-04T21:22:18.538Z,5.20
2022-12-04T21:24:45.345Z,5.10
2022-12-04T21:27:18.911Z,5.20
2022-12-04T21:29:48.925Z,5.20
2022-12-04T21:32:19.464Z,5.20
2022-12-04T21:34:46.401Z,5.20
2022-12-04T21:37:14.645Z,5.20
2022-12-04T21:39:43.602Z,5.20
2022-12-04T21:42:28.980Z,5.20
2022-12-04T21:44:57.294Z,5.20
2022-12-04T21:47:24.638Z,5.20
2022-12-04T21:49:51.589Z,5.20
2022-12-04T21:52:19.898Z,5.20
2022-12-04T21:54:52.758Z,5.20
2022-12-04T21:57:21.113Z,5.20
2022-12-04T21:59:48.480Z,5.20
2022-12-04T22:02:16.252Z,5.20
2022-12-04T22:04:43.613Z,5.20
2022-12-04T22:07:10.869Z,5.20
2022-12-04T22:09:38.660Z,5.20
2022-12-04T22:12:20.229Z,5.20
2022-12-04T22:14:53.443Z,5.20
2022-12-04T22:17:20.278Z,5.20
2022-12-04T22:19:47.895Z,5.20
2022-12-04T22:22:14.697Z,5.20
2022-12-04T22:24:41.700Z,5.40
2022-12-04T22:27:14.713Z,5.20
2022-12-04T22:29:50.179Z,5.20
2022-12-04T22:32:18.974Z,5.20
2022-12-04T22:34:49.005Z,5.20
2022-12-04T22:37:16.314Z,5.20
2022-12-04T22:39:43.189Z,5.20
2022-12-04T22:42:10.035Z,5.20
2022-12-04T22:44:36.861Z,5.20
2022-12-04T22:47:03.921Z,5.20
2022-12-04T22:49:30.992Z,5.20
2022-12-04T22:51:58.051Z,5.20
2022-12-04T22:54:24.830Z,5.20
2022-12-04T22:56:51.821Z,5.20
2022-12-04T22:59:18.703Z,5.20
2022-12-04T23:01:45.546Z,5.20
2022-12-04T23:04:12.417Z,5.20
2022-12-04T23:06:39.359Z,5.20
2022-12-04T23:09:14.938Z,5.20
2022-12-04T23:11:43.213Z,5.20
2022-12-04T23:14:14.631Z,5.30
2022-12-04T23:16:42.735Z,5.30
2022-12-04T23:19:15.102Z,5.20
2022-12-04T23:21:42.801Z,5.20
2022-12-04T23:24:11.075Z,5.20
2022-12-04T23:26:45.319Z,5.20
2022-12-04T23:29:36.884Z,5.20
2022-12-04T23:31:59.889Z,5.30
2022-12-04T23:34:26.797Z,5.30
2022-12-04T23:36:53.754Z,5.30
2022-12-04T23:39:20.692Z,5.30
2022-12-04T23:41:47.589Z,5.30
2022-12-04T23:44:14.392Z,5.30
2022-12-04T23:46:41.346Z,5.30
2022-12-04T23:49:08.836Z,5.30
2022-12-04T23:51:36.064Z,5.30
2022-12-04T23:54:03.019Z,5.30
2022-12-04T23:56:30.062Z,5.30
2022-12-04T23:58:58.096Z,5.30
